Time;durP1;ratioP1;P1;durP2;ratioP2;P2;SDS_P1;SDS_P2;PMS_P1;PMS_P2;Temp;Humidity;BMP_temperature;BMP_pressure;BME280_temperature;BME280_humidity;BME280_pressure;Samples;Min_cycle;Max_cycle;Signal;HPM_P1;HPM_P2
2021/07/23 00:00:13;;;;;;;12.83;10.23;;;;;;;21.89;68.10;96496.84;4984428;28;20178;-59
2021/07/23 00:02:39;;;;;;;11.40;10.20;;;;;;;21.90;68.37;96496.56;4995524;28;20518;-56
2021/07/23 00:05:05;;;;;;;11.37;10.17;;;;;;;21.90;68.45;96496.56;4994529;28;20437;-56
2021/07/23 00:07:30;;;;;;;13.63;10.90;;;;;;;21.90;68.38;96496.56;4994615;28;20170;-56
2021/07/23 00:09:55;;;;;;;12.63;9.60;;;;;;;21.83;68.40;96490.78;4994667;28;20460;-59
2021/07/23 00:12:21;;;;;;;11.30;9.20;;;;;;;21.77;68.10;96497.28;4991640;28;20257;-58
2021/07/23 00:14:46;;;;;;;13.33;10.80;;;;;;;21.73;68.34;96490.91;4981900;28;20245;-57
2021/07/23 00:17:12;;;;;;;12.20;10.90;;;;;;;21.65;68.93;96499.59;4995527;28;20190;-56
2021/07/23 00:19:37;;;;;;;13.30;10.50;;;;;;;21.65;69.29;96490.81;4995299;28;20261;-56
2021/07/23 00:22:02;;;;;;;12.07;10.50;;;;;;;21.71;68.79;96495.78;4995595;28;20260;-60
2021/07/23 00:24:28;;;;;;;11.20;9.90;;;;;;;21.75;68.37;96485.28;4995074;28;20205;-60
2021/07/23 00:26:54;;;;;;;10.57;9.43;;;;;;;21.63;69.11;96491.09;4991402;28;20182;-59
2021/07/23 00:29:20;;;;;;;11.60;10.50;;;;;;;21.62;68.74;96489.50;4975856;28;20584;-56
2021/07/23 00:31:46;;;;;;;13.20;10.20;;;;;;;21.54;68.66;96487.50;4975798;28;20524;-56
2021/07/23 00:34:11;;;;;;;12.53;11.03;;;;;;;21.48;68.70;96486.78;4975672;28;20438;-56
2021/07/23 00:36:38;;;;;;;11.07;9.97;;;;;;;21.48;69.09;96489.47;4975970;28;20609;-55
2021/07/23 00:39:03;;;;;;;12.17;10.90;;;;;;;21.38;70.08;96484.25;4975742;28;20433;-55
2021/07/23 00:41:29;;;;;;;11.53;10.40;;;;;;;21.44;69.59;96485.78;4977754;28;20189;-56
2021/07/23 00:43:54;;;;;;;12.30;11.07;;;;;;;21.45;69.91;96484.69;4994614;28;20588;-56
2021/07/23 00:46:24;;;;;;;13.50;10.60;;;;;;;21.41;70.11;96482.88;4994928;28;20220;-56
2021/07/23 00:48:49;;;;;;;12.60;10.40;;;;;;;21.36;70.04;96481.06;4995245;28;20200;-60
2021/07/23 00:51:15;;;;;;;12.87;10.70;;;;;;;21.33;70.47;96480.84;4995084;28;20460;-56
2021/07/23 00:53:40;;;;;;;11.40;10.10;;;;;;;21.34;70.12;96477.13;4994634;28;20346;-56
2021/07/23 00:56:06;;;;;;;12.00;10.77;;;;;;;21.24;70.03;96474.56;4992393;28;20227;-59
2021/07/23 00:58:31;;;;;;;11.03;9.87;;;;;;;21.23;69.98;96471.09;4975378;28;20232;-56
2021/07/23 01:00:58;;;;;;;12.10;9.70;;;;;;;21.14;70.52;96480.09;4975340;28;20173;-60
2021/07/23 01:03:24;;;;;;;11.37;10.13;;;;;;;21.09;70.82;96472.13;4975039;28;20564;-59
2021/07/23 01:05:50;;;;;;;11.77;10.13;;;;;;;21.15;70.97;96470.97;4975292;28;20473;-55
2021/07/23 01:08:16;;;;;;;13.40;9.87;;;;;;;21.14;71.26;96470.16;4975295;28;20191;-56
2021/07/23 01:10:42;;;;;;;10.90;9.80;;;;;;;21.10;71.16;96476.41;4974886;28;20795;-58
2021/07/23 01:13:07;;;;;;;10.63;9.63;;;;;;;21.08;71.21;96470.53;5004055;28;20450;-60
2021/07/23 01:15:34;;;;;;;12.10;10.07;;;;;;;21.16;71.28;96467.22;5014167;28;20196;-59
2021/07/23 01:17:59;;;;;;;12.07;10.57;;;;;;;21.13;71.40;96462.44;5014298;28;20172;-59
2021/07/23 01:20:26;;;;;;;12.33;11.10;;;;;;;21.11;71.02;96467.28;5014161;28;20408;-55
2021/07/23 01:22:54;;;;;;;11.93;10.70;;;;;;;21.12;71.51;96466.22;5013763;28;20649;-60
2021/07/23 01:25:21;;;;;;;11.93;10.43;;;;;;;21.06;71.63;96465.50;5013782;28;20513;-60
2021/07/23 01:27:51;;;;;;;11.47;10.27;;;;;;;21.06;71.50;96464.69;4994052;28;20425;-56
2021/07/23 01:30:17;;;;;;;13.70;10.17;;;;;;;21.09;71.45;96461.41;4993452;28;20870;-56
2021/07/23 01:32:42;;;;;;;12.33;10.40;;;;;;;21.03;71.74;96463.41;4993893;28;20416;-56
2021/07/23 01:35:09;;;;;;;12.20;11.00;;;;;;;20.99;71.79;96450.88;4994158;28;20435;-58
2021/07/23 01:37:34;;;;;;;11.13;10.03;;;;;;;21.01;72.05;96459.41;4994075;28;20632;-59
2021/07/23 01:40:01;;;;;;;12.00;10.70;;;;;;;21.02;71.94;96458.31;4993902;28;20413;-59
2021/07/23 01:42:28;;;;;;;11.83;10.73;;;;;;;20.86;71.70;96456.91;4975801;28;20174;-56
2021/07/23 01:44:54;;;;;;;10.77;9.67;;;;;;;20.78;71.59;96455.69;4974320;28;20791;-55
2021/07/23 01:47:19;;;;;;;11.33;9.87;;;;;;;20.59;71.90;96456.75;4974580;28;20493;-56
2021/07/23 01:49:45;;;;;;;11.23;9.73;;;;;;;20.40;72.77;96451.34;4974511;28;20249;-56
2021/07/23 01:52:10;;;;;;;11.43;10.27;;;;;;;20.62;72.70;96456.97;4974672;28;20184;-60
2021/07/23 01:54:36;;;;;;;9.90;8.90;;;;;;;20.76;71.92;96451.72;4974057;28;20189;-59
2021/07/23 01:57:03;;;;;;;13.90;10.27;;;;;;;20.75;72.51;96444.78;4976886;28;20637;-56
2021/07/23 01:59:29;;;;;;;12.73;9.83;;;;;;;20.74;71.84;96454.69;4974708;28;20228;-56
2021/07/23 02:01:56;;;;;;;10.23;9.23;;;;;;;20.63;72.42;96455.09;4974756;28;20420;-60
2021/07/23 02:04:22;;;;;;;10.17;9.17;;;;;;;20.65;71.98;96451.06;4974238;28;20440;-59
2021/07/23 02:06:48;;;;;;;10.67;9.57;;;;;;;20.51;72.82;96452.06;4974545;28;20424;-55
2021/07/23 02:09:13;;;;;;;12.47;9.80;;;;;;;20.30;73.48;96451.47;4974593;28;20425;-59
2021/07/23 02:11:38;;;;;;;11.27;10.07;;;;;;;20.19;74.93;96447.34;4991099;28;20200;-59
2021/07/23 02:14:06;;;;;;;11.27;9.63;;;;;;;20.32;74.24;96449.31;5011317;28;20195;-59
2021/07/23 02:16:32;;;;;;;10.80;9.80;;;;;;;20.51;73.55;96444.81;5013456;28;20207;-60
2021/07/23 02:18:57;;;;;;;10.90;9.80;;;;;;;20.49;73.44;96446.97;5013728;28;20890;-56
2021/07/23 02:21:23;;;;;;;10.27;9.27;;;;;;;20.00;74.98;96444.56;5013359;28;20546;-56
2021/07/23 02:23:48;;;;;;;10.13;9.20;;;;;;;19.93;75.52;96438.78;5012937;28;20246;-59
2021/07/23 02:26:21;;;;;;;10.20;9.20;;;;;;;20.04;75.15;96436.78;4996684;28;20182;-55
2021/07/23 02:28:48;;;;;;;10.73;9.70;;;;;;;20.19;74.01;96437.47;4993890;28;20180;-56
2021/07/23 02:31:13;;;;;;;13.80;10.40;;;;;;;20.25;73.90;96435.53;4993580;28;20464;-59
2021/07/23 02:33:39;;;;;;;10.50;9.40;;;;;;;20.07;73.82;96439.72;4993297;28;20420;-59
2021/07/23 02:36:05;;;;;;;10.97;9.63;;;;;;;19.57;76.22;96439.41;4993622;28;20304;-59
2021/07/23 02:38:31;;;;;;;10.10;9.10;;;;;;;19.64;76.19;96432.66;4993612;28;20507;-56
2021/07/23 02:40:56;;;;;;;10.77;9.53;;;;;;;19.89;75.98;96426.28;4978752;28;20174;-56
2021/07/23 02:43:23;;;;;;;11.13;9.97;;;;;;;20.02;75.32;96429.06;4977704;28;20182;-56
2021/07/23 02:45:48;;;;;;;10.67;9.57;;;;;;;20.07;74.98;96429.03;4977879;28;20190;-55
2021/07/23 02:48:14;;;;;;;11.20;9.90;;;;;;;19.91;74.68;96429.47;4977837;28;20444;-55
2021/07/23 02:50:39;;;;;;;12.10;9.97;;;;;;;19.73;75.29;96432.84;4977908;28;20202;-59
2021/07/23 02:53:04;;;;;;;11.00;9.80;;;;;;;19.39;77.03;96425.69;4977322;28;20174;-59
2021/07/23 02:55:30;;;;;;;10.73;9.63;;;;;;;19.57;76.61;96426.84;4977522;28;20238;-56
2021/07/23 02:57:55;;;;;;;11.30;10.17;;;;;;;19.71;76.21;96430.44;4977566;28;20240;-56
2021/07/23 03:00:22;;;;;;;10.70;9.60;;;;;;;19.79;75.92;96426.38;4977515;28;20176;-60
2021/07/23 03:02:48;;;;;;;11.63;10.43;;;;;;;19.64;76.38;96424.66;4977347;28;20547;-59
2021/07/23 03:05:13;;;;;;;10.10;9.10;;;;;;;19.57;76.71;96421.53;4977368;28;20970;-56
2021/07/23 03:07:39;;;;;;;11.00;9.10;;;;;;;19.46;77.22;96420.03;4977503;28;20173;-59
2021/07/23 03:10:04;;;;;;;11.40;10.00;;;;;;;19.51;77.36;96412.00;4989554;28;20237;-55
2021/07/23 03:12:30;;;;;;;10.43;9.20;;;;;;;19.62;76.86;96420.69;5002366;28;20172;-60
2021/07/23 03:14:55;;;;;;;11.00;9.80;;;;;;;19.55;76.88;96412.22;5015956;28;20197;-55
2021/07/23 03:17:21;;;;;;;11.60;10.40;;;;;;;19.52;77.55;96413.56;5016611;28;20180;-55
2021/07/23 03:19:46;;;;;;;11.43;10.27;;;;;;;19.48;77.44;96405.34;5016231;28;20180;-59
2021/07/23 03:22:11;;;;;;;10.47;9.37;;;;;;;19.26;78.10;96409.50;5016114;28;20183;-55
2021/07/23 03:24:37;;;;;;;10.80;9.67;;;;;;;19.25;78.13;96406.06;5003963;28;20232;-55
2021/07/23 03:27:02;;;;;;;14.23;10.20;;;;;;;19.04;78.98;96403.81;4996505;28;20170;-56
2021/07/23 03:29:28;;;;;;;11.47;10.07;;;;;;;19.16;78.88;96404.25;4996681;28;20188;-55
2021/07/23 03:31:53;;;;;;;11.90;10.40;;;;;;;19.36;77.66;96407.59;4996422;28;20216;-59
2021/07/23 03:34:18;;;;;;;10.90;9.40;;;;;;;19.36;76.85;96409.47;4996106;28;20201;-55
2021/07/23 03:36:44;;;;;;;10.40;9.40;;;;;;;19.39;77.59;96407.03;4996493;28;20185;-56
2021/07/23 03:39:09;;;;;;;12.60;9.87;;;;;;;19.46;77.47;96402.16;4987553;28;20186;-55
2021/07/23 03:41:34;;;;;;;11.47;10.30;;;;;;;19.48;77.47;96401.88;4976854;28;20174;-60
2021/07/23 03:44:00;;;;;;;14.40;9.50;;;;;;;19.51;77.37;96401.34;4976533;28;20194;-59
2021/07/23 03:46:25;;;;;;;14.00;9.17;;;;;;;19.51;77.59;96406.66;4976616;28;20217;-59
2021/07/23 03:48:53;;;;;;;10.97;9.40;;;;;;;19.48;77.37;96408.00;4976861;28;20225;-60
2021/07/23 03:51:19;;;;;;;11.17;9.97;;;;;;;19.45;77.75;96407.78;4976467;28;20293;-59
2021/07/23 03:53:44;;;;;;;11.50;9.97;;;;;;;19.56;76.85;96393.28;4982601;28;20535;-56
2021/07/23 03:56:10;;;;;;;12.93;10.10;;;;;;;19.52;77.37;96404.78;4996164;28;20182;-55
2021/07/23 03:58:36;;;;;;;10.97;9.73;;;;;;;19.45;77.82;96405.91;4996211;28;20204;-59
2021/07/23 04:01:05;;;;;;;12.13;10.80;;;;;;;19.46;77.47;96412.03;4996212;28;20166;-59
2021/07/23 04:03:34;;;;;;;11.53;10.30;;;;;;;19.46;77.84;96409.34;4976258;28;20480;-58
2021/07/23 04:06:01;;;;;;;12.73;10.17;;;;;;;19.50;77.27;96410.41;4976391;28;20401;-59
2021/07/23 04:08:27;;;;;;;10.67;9.50;;;;;;;19.51;77.28;96417.34;4976512;28;20432;-59
2021/07/23 04:10:52;;;;;;;10.73;9.63;;;;;;;19.48;77.41;96408.00;4976143;28;20831;-56
2021/07/23 04:13:18;;;;;;;12.50;10.70;;;;;;;19.55;77.18;96421.00;4999143;28;20416;-56
2021/07/23 04:15:43;;;;;;;12.43;10.00;;;;;;;19.55;77.52;96414.91;5015196;28;20200;-56
2021/07/23 04:18:08;;;;;;;13.40;9.80;;;;;;;19.47;78.20;96418.97;4996490;28;20276;-59
2021/07/23 04:20:34;;;;;;;11.80;10.63;;;;;;;19.62;77.51;96418.03;4996039;28;20655;-55
2021/07/23 04:22:59;;;;;;;11.97;9.53;;;;;;;19.53;77.82;96417.03;4995331;28;20260;-59
2021/07/23 04:25:25;;;;;;;12.17;10.87;;;;;;;19.58;78.31;96420.47;4995237;28;20660;-59
2021/07/23 04:27:50;;;;;;;10.90;9.50;;;;;;;19.59;78.23;96418.56;4995614;28;20176;-56
2021/07/23 04:30:16;;;;;;;12.20;10.80;;;;;;;19.56;78.57;96419.16;4995503;28;20194;-55
2021/07/23 04:32:46;;;;;;;11.40;10.10;;;;;;;19.67;78.19;96425.97;4978952;28;20233;-55
2021/07/23 04:35:12;;;;;;;11.20;10.00;;;;;;;19.62;78.53;96420.69;4975782;28;20448;-59
2021/07/23 04:37:37;;;;;;;11.37;10.17;;;;;;;19.63;78.73;96420.41;4974507;28;20508;-59
2021/07/23 04:40:06;;;;;;;12.77;11.17;;;;;;;19.54;78.82;96418.63;4975905;28;20232;-56
2021/07/23 04:42:32;;;;;;;11.63;10.43;;;;;;;19.59;79.28;96418.56;4975617;28;20184;-55
2021/07/23 04:44:57;;;;;;;17.20;10.30;;;;;;;19.21;79.41;96421.00;4975156;28;20480;-58
2021/07/23 04:47:23;;;;;;;14.30;10.47;;;;;;;18.95;81.01;96432.13;4977888;28;20458;-58
2021/07/23 04:49:48;;;;;;;12.83;9.63;;;;;;;18.93;81.58;96429.72;4974190;28;20190;-59
2021/07/23 04:52:14;;;;;;;11.67;10.10;;;;;;;19.17;81.09;96427.16;4975510;28;20174;-56
2021/07/23 04:54:39;;;;;;;12.10;10.70;;;;;;;19.35;80.43;96431.84;4974868;28;20194;-56
2021/07/23 04:57:05;;;;;;;10.80;9.70;;;;;;;19.48;80.14;96425.88;4975426;28;20177;-56
2021/07/23 04:59:31;;;;;;;12.20;10.00;;;;;;;19.52;79.99;96434.91;4975647;28;20174;-60
2021/07/23 05:01:56;;;;;;;12.53;10.53;;;;;;;19.65;79.69;96441.44;4988864;28;20667;-56
2021/07/23 05:04:21;;;;;;;11.97;10.17;;;;;;;19.50;80.03;96431.72;4994120;28;20203;-60
2021/07/23 05:06:47;;;;;;;11.73;10.40;;;;;;;19.55;79.71;96426.34;4994671;28;20166;-55
2021/07/23 05:09:12;;;;;;;11.50;10.10;;;;;;;19.67;79.71;96428.63;4994634;28;20173;-55
2021/07/23 05:11:38;;;;;;;14.10;11.00;;;;;;;19.79;79.68;96421.03;4994883;28;20193;-55
2021/07/23 05:14:06;;;;;;;13.90;10.07;;;;;;;19.88;79.42;96430.03;5011974;28;20196;-56
2021/07/23 05:16:32;;;;;;;11.87;10.60;;;;;;;19.93;79.19;96422.75;5000361;28;20196;-56
2021/07/23 05:18:57;;;;;;;11.03;10.00;;;;;;;20.04;79.17;96426.91;4994656;28;20444;-60
2021/07/23 05:21:23;;;;;;;11.60;10.17;;;;;;;20.03;79.45;96435.22;4994497;28;20440;-56
2021/07/23 05:23:49;;;;;;;12.10;10.80;;;;;;;20.02;79.91;96425.63;4994096;28;20189;-59
2021/07/23 05:26:14;;;;;;;11.50;10.30;;;;;;;20.10;79.73;96427.66;4994506;28;20189;-55
2021/07/23 05:28:40;;;;;;;11.33;10.20;;;;;;;20.12;79.02;96418.31;4994380;28;20165;-60
2021/07/23 05:31:08;;;;;;;13.90;10.57;;;;;;;20.16;79.51;96418.53;4982853;28;20190;-59
2021/07/23 05:33:34;;;;;;;13.17;10.90;;;;;;;20.19;79.31;96425.97;4974636;28;20555;-59
2021/07/23 05:35:59;;;;;;;16.60;11.57;;;;;;;20.33;79.16;96424.22;4975051;28;20424;-60
2021/07/23 05:38:25;;;;;;;11.37;10.23;;;;;;;20.36;79.27;96427.09;4974921;28;20257;-55
2021/07/23 05:40:50;;;;;;;12.83;10.60;;;;;;;20.41;79.09;96418.25;4974979;28;20173;-59
2021/07/23 05:43:17;;;;;;;12.40;11.10;;;;;;;20.44;79.28;96423.81;4974478;28;20185;-56
2021/07/23 05:45:42;;;;;;;10.87;9.77;;;;;;;20.46;79.39;96427.00;4984590;28;20213;-60
2021/07/23 05:48:07;;;;;;;12.40;10.60;;;;;;;20.40;79.59;96425.47;4994143;28;20408;-60
2021/07/23 05:50:34;;;;;;;11.83;10.43;;;;;;;20.51;79.32;96423.44;4994180;28;20541;-60
2021/07/23 05:52:59;;;;;;;11.53;10.43;;;;;;;20.54;79.37;96422.91;4993800;28;20176;-55
2021/07/23 05:55:24;;;;;;;12.77;10.50;;;;;;;20.47;78.25;96423.22;4992712;28;20452;-56
2021/07/23 05:57:50;;;;;;;11.13;10.03;;;;;;;20.26;77.79;96427.25;4993956;28;20170;-60
2021/07/23 06:00:16;;;;;;;13.10;10.10;;;;;;;20.19;76.99;96428.66;4985025;28;20181;-56
2021/07/23 06:02:41;;;;;;;14.70;11.50;;;;;;;19.97;78.04;96433.66;4974184;28;20656;-60
2021/07/23 06:05:07;;;;;;;12.83;10.47;;;;;;;20.19;77.26;96432.13;4974456;28;20673;-60
2021/07/23 06:07:33;;;;;;;12.47;11.17;;;;;;;20.25;78.14;96431.00;4974664;28;20193;-59
2021/07/23 06:09:59;;;;;;;12.27;10.87;;;;;;;20.51;77.37;96438.69;4974641;28;20449;-60
2021/07/23 06:12:24;;;;;;;12.80;11.30;;;;;;;20.64;77.65;96437.97;4983509;28;20176;-56
2021/07/23 06:14:50;;;;;;;11.93;10.57;;;;;;;20.77;77.71;96437.28;4998334;28;20445;-59
2021/07/23 06:17:15;;;;;;;12.80;10.60;;;;;;;20.65;77.36;96429.69;4993531;28;20252;-59
2021/07/23 06:19:41;;;;;;;11.67;10.43;;;;;;;20.79;77.02;96429.75;4978343;28;20253;-60
2021/07/23 06:22:07;;;;;;;12.10;10.63;;;;;;;20.89;76.99;96432.31;4978451;28;20257;-60
2021/07/23 06:24:33;;;;;;;12.17;9.13;;;;;;;20.96;77.43;96430.84;4977926;28;20225;-60
2021/07/23 06:26:58;;;;;;;11.37;10.17;;;;;;;21.03;77.21;96426.00;4978358;28;20417;-56
2021/07/23 06:29:24;;;;;;;14.20;12.63;;;;;;;21.03;77.03;96426.00;4978167;28;20406;-58
2021/07/23 06:31:49;;;;;;;14.33;12.10;;;;;;;20.91;75.26;96422.09;4978194;28;20248;-58
2021/07/23 06:34:15;;;;;;;12.70;11.40;;;;;;;21.02;75.79;96432.41;4993344;28;20198;-56
2021/07/23 06:36:40;;;;;;;13.67;11.27;;;;;;;21.21;75.84;96435.06;4978450;28;20166;-56
2021/07/23 06:39:05;;;;;;;14.63;10.60;;;;;;;21.35;76.53;96422.53;4977919;28;20245;-59
2021/07/23 06:41:32;;;;;;;11.30;9.80;;;;;;;21.32;77.51;96415.88;4978133;28;20170;-55
2021/07/23 06:43:58;;;;;;;13.33;11.47;;;;;;;21.41;77.80;96426.72;4977502;28;20222;-59
2021/07/23 06:46:23;;;;;;;11.73;10.53;;;;;;;21.48;77.75;96427.16;4977710;28;20429;-60
2021/07/23 06:48:48;;;;;;;11.10;10.00;;;;;;;21.51;78.42;96423.88;4978843;28;20193;-56
2021/07/23 06:51:14;;;;;;;12.40;11.27;;;;;;;21.57;78.48;96424.59;4997376;28;20292;-55
2021/07/23 06:53:39;;;;;;;13.37;12.07;;;;;;;21.63;78.48;96426.09;4996776;28;20177;-60
2021/07/23 06:56:05;;;;;;;16.87;13.40;;;;;;;21.57;76.60;96435.28;4997281;28;20635;-62
2021/07/23 06:58:31;;;;;;;12.70;11.23;;;;;;;21.70;76.51;96427.31;4992539;28;20657;-61
2021/07/23 07:01:02;;;;;;;13.70;11.57;;;;;;;21.75;77.08;96429.09;4977630;28;20213;-60
2021/07/23 07:03:28;;;;;;;13.90;12.50;;;;;;;21.85;77.70;96428.97;4988650;28;20169;-56
2021/07/23 07:05:53;;;;;;;12.87;11.43;;;;;;;21.87;78.30;96424.88;4997092;28;20734;-56
2021/07/23 07:08:18;;;;;;;11.83;10.63;;;;;;;21.91;78.64;96423.22;4996059;28;20529;-56
2021/07/23 07:10:44;;;;;;;14.57;12.40;;;;;;;21.81;75.42;96428.75;4996832;28;20280;-62
2021/07/23 07:13:09;;;;;;;14.53;12.03;;;;;;;21.80;76.97;96423.66;4996465;28;20169;-61
2021/07/23 07:15:34;;;;;;;14.10;11.67;;;;;;;21.90;75.26;96424.31;4996834;28;20193;-57
2021/07/23 07:18:01;;;;;;;14.07;12.57;;;;;;;21.82;75.13;96426.84;4987752;28;20644;-61
2021/07/23 07:20:29;;;;;;;14.37;12.63;;;;;;;21.98;75.64;96425.47;4982542;28;20188;-57
2021/07/23 07:22:55;;;;;;;13.33;11.87;;;;;;;22.10;75.89;96426.59;4996330;28;21122;-56
2021/07/23 07:25:21;;;;;;;17.60;12.80;;;;;;;21.69;73.07;96427.56;4996844;28;20435;-56
2021/07/23 07:27:47;;;;;;;12.43;11.10;;;;;;;21.97;73.71;96421.22;4996645;28;20961;-60
2021/07/23 07:30:13;;;;;;;12.77;11.43;;;;;;;22.12;74.74;96429.75;4996455;28;20464;-57
2021/07/23 07:32:38;;;;;;;17.33;13.10;;;;;;;22.25;74.71;96428.97;4996222;28;20169;-58
2021/07/23 07:35:04;;;;;;;13.60;12.30;;;;;;;21.85;72.67;96419.03;4992395;28;20450;-61
2021/07/23 07:37:30;;;;;;;13.43;11.33;;;;;;;22.02;74.38;96421.13;4977177;28;20185;-56
2021/07/23 07:39:56;;;;;;;13.13;11.83;;;;;;;22.28;75.21;96425.69;4977595;28;20500;-61
2021/07/23 07:42:21;;;;;;;18.27;13.77;;;;;;;22.40;74.06;96419.84;4981506;28;20217;-58
2021/07/23 07:44:48;;;;;;;16.30;13.00;;;;;;;22.04;70.99;96418.94;4976612;28;20616;-56
2021/07/23 07:47:14;;;;;;;13.73;12.40;;;;;;;22.33;71.93;96414.91;4977555;28;20687;-58
2021/07/23 07:49:39;;;;;;;11.70;10.60;;;;;;;22.57;73.68;96413.91;5003311;28;20441;-57
2021/07/23 07:52:05;;;;;;;14.43;11.50;;;;;;;22.63;72.26;96416.16;5006018;28;20198;-61
2021/07/23 07:54:31;;;;;;;16.30;12.53;;;;;;;22.50;72.25;96423.09;4995558;28;20280;-56
2021/07/23 07:56:58;;;;;;;13.63;12.20;;;;;;;22.79;72.91;96412.06;5003898;28;20177;-64
2021/07/23 07:59:23;;;;;;;13.33;11.50;;;;;;;22.93;72.65;96404.81;4992283;28;20424;-63
2021/07/23 08:01:48;;;;;;;11.60;10.50;;;;;;;23.03;73.04;96407.25;4993986;28;20785;-59
2021/07/23 08:04:14;;;;;;;12.83;11.63;;;;;;;23.01;72.75;96409.44;4992073;28;20197;-58
2021/07/23 08:06:41;;;;;;;12.70;11.40;;;;;;;23.12;71.82;96412.66;4991015;28;20181;-58
2021/07/23 08:09:08;;;;;;;11.97;10.87;;;;;;;23.21;71.32;96403.59;4992537;28;20220;-59
2021/07/23 08:11:35;;;;;;;14.00;12.10;;;;;;;23.24;69.93;96403.00;4991743;28;20816;-58
2021/07/23 08:14:01;;;;;;;12.27;10.97;;;;;;;23.37;70.34;96404.84;5010220;28;20444;-57
2021/07/23 08:16:28;;;;;;;14.50;12.07;;;;;;;23.44;69.76;96402.53;5015797;28;20941;-57
2021/07/23 08:18:54;;;;;;;12.60;11.40;;;;;;;23.58;69.66;96404.34;5015291;28;20917;-59
2021/07/23 08:21:19;;;;;;;12.13;10.93;;;;;;;23.68;69.73;96393.38;5015296;28;20511;-58
2021/07/23 08:23:45;;;;;;;12.70;11.33;;;;;;;23.71;69.39;96398.91;5000891;28;20189;-56
2021/07/23 08:26:10;;;;;;;15.00;11.13;;;;;;;23.83;69.20;96393.75;4994779;28;20173;-59
2021/07/23 08:28:36;;;;;;;11.03;9.93;;;;;;;23.92;68.91;96386.53;4984391;28;20170;-56
2021/07/23 08:31:02;;;;;;;13.17;10.90;;;;;;;24.00;68.62;96396.56;4995255;28;20201;-55
2021/07/23 08:33:28;;;;;;;12.80;11.50;;;;;;;24.06;68.72;96389.94;4995026;28;20184;-58
2021/07/23 08:35:54;;;;;;;12.67;11.23;;;;;;;24.08;68.16;96387.72;4995352;28;20244;-59
2021/07/23 08:38:19;;;;;;;13.07;11.80;;;;;;;24.18;67.17;96390.16;4995140;28;20169;-58
2021/07/23 08:40:45;;;;;;;14.27;11.30;;;;;;;24.29;66.52;96382.59;4993115;28;20158;-57
2021/07/23 08:43:10;;;;;;;14.13;12.73;;;;;;;24.36;66.61;96383.72;4994846;28;20197;-56
2021/07/23 08:45:37;;;;;;;12.50;10.83;;;;;;;24.35;65.23;96384.00;4995147;28;20212;-58
2021/07/23 08:48:04;;;;;;;11.70;10.50;;;;;;;24.48;64.93;96385.03;4995219;28;20173;-58
2021/07/23 08:50:30;;;;;;;12.30;11.10;;;;;;;24.51;65.31;96382.50;4995110;28;20487;-55
2021/07/23 08:52:56;;;;;;;11.97;10.77;;;;;;;24.51;65.13;96376.31;4994741;28;20448;-58
2021/07/23 08:55:22;;;;;;;12.20;10.93;;;;;;;24.54;64.63;96391.81;4990155;28;20194;-58
2021/07/23 08:57:49;;;;;;;15.07;11.33;;;;;;;24.64;63.55;96391.53;4995097;28;20180;-56
2021/07/23 09:00:23;;;;;;;11.47;10.00;;;;;;;24.79;63.30;96385.69;4994998;28;20820;-55
2021/07/23 09:02:53;;;;;;;13.20;11.77;;;;;;;24.73;63.22;96385.06;4994713;28;20401;-56
2021/07/23 09:05:24;;;;;;;12.30;11.10;;;;;;;24.86;63.33;96389.50;4993593;28;20443;-56
2021/07/23 09:07:50;;;;;;;12.53;10.73;;;;;;;25.01;63.53;96391.75;4994879;28;20401;-58
2021/07/23 09:10:26;;;;;;;13.80;11.30;;;;;;;24.93;60.42;96386.38;4988037;28;20812;-58
2021/07/23 09:12:53;;;;;;;13.80;12.50;;;;;;;24.93;62.41;96389.06;4975134;28;20641;-57
2021/07/23 09:15:27;;;;;;;11.47;10.43;;;;;;;25.12;62.43;96381.44;4975231;28;20430;-58
2021/07/23 09:17:54;;;;;;;12.40;11.30;;;;;;;25.24;62.75;96377.00;4975362;28;20497;-58
2021/07/23 09:20:28;;;;;;;12.23;11.00;;;;;;;25.35;61.65;96385.53;4975250;28;20508;-58
2021/07/23 09:23:01;;;;;;;14.40;12.50;;;;;;;25.28;60.28;96382.53;4973709;28;20456;-57
2021/07/23 09:25:36;;;;;;;13.23;11.63;;;;;;;25.36;60.09;96374.44;4984724;28;20439;-56
2021/07/23 09:28:17;;;;;;;16.43;14.80;;;;;;;25.41;59.08;96373.53;4994507;28;20415;-56
2021/07/23 09:30:43;;;;;;;13.43;11.73;;;;;;;25.26;61.19;96382.06;4994505;28;20507;-57
2021/07/23 09:33:09;;;;;;;13.90;12.40;;;;;;;25.49;62.77;96380.03;4994242;28;20420;-56
2021/07/23 09:35:35;;;;;;;19.27;14.10;;;;;;;25.40;62.37;96374.66;4994370;28;20190;-56
2021/07/23 09:38:00;;;;;;;12.80;11.60;;;;;;;25.70;61.56;96379.00;4994478;28;20420;-56
2021/07/23 09:40:42;;;;;;;14.60;13.13;;;;;;;25.56;60.65;96369.56;4983163;28;20177;-58
2021/07/23 09:43:07;;;;;;;14.83;13.07;;;;;;;25.66;62.94;96377.28;4975829;28;20209;-57
2021/07/23 09:45:34;;;;;;;13.37;12.17;;;;;;;25.98;63.02;96368.63;4974596;28;20471;-59
2021/07/23 09:48:12;;;;;;;13.67;12.47;;;;;;;26.11;60.79;96368.44;4974869;28;20186;-56
2021/07/23 09:50:48;;;;;;;14.47;12.10;;;;;;;26.33;62.09;96365.47;4974068;28;20441;-58
2021/07/23 09:53:16;;;;;;;15.00;13.23;;;;;;;26.11;58.37;96363.03;4974442;28;20401;-59
2021/07/23 09:55:46;;;;;;;15.20;13.60;;;;;;;26.41;60.84;96366.53;4974586;28;20462;-58
2021/07/23 09:58:19;;;;;;;15.07;13.50;;;;;;;25.76;57.41;96360.78;4974614;28;20409;-56
2021/07/23 10:00:48;;;;;;;15.53;13.97;;;;;;;25.53;61.24;96359.44;4974891;28;20397;-58
2021/07/23 10:03:16;;;;;;;13.67;12.27;;;;;;;25.74;60.70;96354.94;4974237;28;20441;-56
2021/07/23 10:05:53;;;;;;;13.63;12.27;;;;;;;26.11;62.83;96349.56;4986224;28;20531;-59
2021/07/23 10:08:26;;;;;;;13.43;12.03;;;;;;;26.47;60.15;96353.66;4994151;28;20413;-58
2021/07/23 10:10:55;;;;;;;17.53;12.57;;;;;;;26.75;59.38;96346.66;4993441;28;20456;-56
2021/07/23 10:13:27;;;;;;;15.23;13.70;;;;;;;26.18;57.24;96339.06;4993422;28;20412;-56
2021/07/23 10:15:53;;;;;;;14.23;12.60;;;;;;;26.04;58.47;96341.22;4989619;28;20440;-57
2021/07/23 10:18:19;;;;;;;13.73;12.30;;;;;;;26.39;57.78;96333.72;4988340;28;20900;-56
2021/07/23 10:20:48;;;;;;;12.30;11.20;;;;;;;26.59;59.30;96330.25;4991206;28;20185;-56
2021/07/23 10:23:21;;;;;;;14.00;12.70;;;;;;;26.81;59.05;96329.19;4974718;28;20605;-59
2021/07/23 10:25:51;;;;;;;12.87;11.70;;;;;;;27.05;58.11;96326.59;4974216;28;20465;-58
2021/07/23 10:28:42;;;;;;;13.37;11.27;;;;;;;26.99;58.66;96317.91;4986543;28;20420;-58
2021/07/23 10:31:17;;;;;;;14.70;13.20;;;;;;;26.62;55.34;96309.91;5013354;28;20991;-58
2021/07/23 10:33:59;;;;;;;13.83;11.83;;;;;;;27.05;55.95;96310.41;4998664;28;20961;-60
2021/07/23 10:36:27;;;;;;;13.03;11.00;;;;;;;27.35;58.77;96304.56;5000240;28;20416;-60
2021/07/23 10:39:17;;;;;;;12.70;11.50;;;;;;;27.62;57.02;96307.75;4996783;28;20447;-60
2021/07/23 10:41:45;;;;;;;13.30;12.10;;;;;;;27.80;56.28;96301.81;4998023;28;20417;-55
2021/07/23 10:44:23;;;;;;;12.80;11.50;;;;;;;27.99;56.11;96302.06;4989072;28;20444;-56
2021/07/23 10:46:48;;;;;;;12.83;10.60;;;;;;;28.14;56.04;96303.31;4981666;28;21012;-56
2021/07/23 10:49:31;;;;;;;12.63;11.13;;;;;;;28.20;51.63;96294.66;4985034;28;20511;-56
2021/07/23 10:52:04;;;;;;;12.50;11.20;;;;;;;28.41;50.20;96297.19;4983748;28;20698;-57
2021/07/23 10:54:31;;;;;;;11.83;10.63;;;;;;;28.36;47.21;96294.72;4981547;28;20477;-55
2021/07/23 10:57:04;;;;;;;11.00;9.97;;;;;;;28.20;46.44;96291.94;4981851;28;20433;-56
2021/07/23 10:59:38;;;;;;;13.37;10.83;;;;;;;28.20;48.72;96288.44;4981730;28;20943;-58
2021/07/23 11:02:10;;;;;;;11.70;10.63;;;;;;;27.88;46.98;96289.34;4983093;28;20948;-57
2021/07/23 11:04:36;;;;;;;11.63;10.50;;;;;;;28.03;49.13;96283.25;4980334;28;20449;-56
2021/07/23 11:07:03;;;;;;;10.90;9.90;;;;;;;28.28;49.87;96285.59;4988159;28;20435;-58
2021/07/23 11:09:31;;;;;;;13.10;10.80;;;;;;;28.51;50.99;96277.00;4985903;28;20440;-57
2021/07/23 11:12:17;;;;;;;10.40;9.50;;;;;;;28.29;48.93;96278.28;4985261;28;20469;-56
2021/07/23 11:14:42;;;;;;;11.20;10.00;;;;;;;28.65;51.39;96270.13;4977043;28;20457;-57
2021/07/23 11:17:12;;;;;;;11.07;10.00;;;;;;;28.57;43.93;96267.56;4977274;28;20418;-56